<?xml version="1.0" encoding="UTF-8" standalone="no" ?>
<gpx xmlns="http://www.topografix.com/GPX/1/1" xmlns:xsi="http://www.w3.org/2001/XMLSchema-instance" xsi:schemaLocation="http://www.topografix.com/GPX/1/1 http://www.topografix.com/GPX/1/1/gpx.xsd" version="1.1" creator="VisuGPX - https://www.visugpx.com">
  <metadata>
    <name>Lac De Remoray</name>
    <desc><![CDATA[Route created on plotaroute.com]]></desc>
  </metadata>
  <trk>
    <name><![CDATA[Lac De Remoray]]></name>
    <trkseg>
      <trkpt lat="46.7674" lon="6.27598">
        <ele>864</ele>
        <time>2022-06-05T00:00:00Z</time>
      </trkpt>
      <trkpt lat="46.76751" lon="6.27571">
        <ele>863</ele>
        <time>2022-06-05T00:00:17Z</time>
      </trkpt>
      <trkpt lat="46.76758" lon="6.27557">
        <ele>862</ele>
        <time>2022-06-05T00:00:27Z</time>
      </trkpt>
      <trkpt lat="46.76778" lon="6.27523">
        <ele>859</ele>
        <time>2022-06-05T00:00:51Z</time>
      </trkpt>
      <trkpt lat="46.76794" lon="6.2749">
        <ele>857</ele>
        <time>2022-06-05T00:01:14Z</time>
      </trkpt>
      <trkpt lat="46.76801" lon="6.27471">
        <ele>856</ele>
        <time>2022-06-05T00:01:25Z</time>
      </trkpt>
      <trkpt lat="46.76807" lon="6.27452">
        <ele>855</ele>
        <time>2022-06-05T00:01:37Z</time>
      </trkpt>
      <trkpt lat="46.7681" lon="6.27441">
        <ele>854</ele>
        <time>2022-06-05T00:01:43Z</time>
      </trkpt>
      <trkpt lat="46.76811" lon="6.27428">
        <ele>854</ele>
        <time>2022-06-05T00:01:51Z</time>
      </trkpt>
      <trkpt lat="46.76808" lon="6.27414">
        <ele>854</ele>
        <time>2022-06-05T00:01:59Z</time>
      </trkpt>
      <trkpt lat="46.76795" lon="6.27374">
        <ele>853</ele>
        <time>2022-06-05T00:02:23Z</time>
      </trkpt>
      <trkpt lat="46.7679" lon="6.27356">
        <ele>852</ele>
        <time>2022-06-05T00:02:34Z</time>
      </trkpt>
      <trkpt lat="46.76784" lon="6.27345">
        <ele>852</ele>
        <time>2022-06-05T00:02:41Z</time>
      </trkpt>
      <trkpt lat="46.76782" lon="6.27342">
        <ele>852</ele>
        <time>2022-06-05T00:02:44Z</time>
      </trkpt>
      <trkpt lat="46.76766" lon="6.27321">
        <ele>852</ele>
        <time>2022-06-05T00:03:01Z</time>
      </trkpt>
      <trkpt lat="46.76758" lon="6.2731">
        <ele>851</ele>
        <time>2022-06-05T00:03:10Z</time>
      </trkpt>
      <trkpt lat="46.76752" lon="6.27301">
        <ele>851</ele>
        <time>2022-06-05T00:03:17Z</time>
      </trkpt>
      <trkpt lat="46.76749" lon="6.27294">
        <ele>851</ele>
        <time>2022-06-05T00:03:21Z</time>
      </trkpt>
      <trkpt lat="46.76774" lon="6.27289">
        <ele>851</ele>
        <time>2022-06-05T00:03:41Z</time>
      </trkpt>
      <trkpt lat="46.76784" lon="6.27288">
        <ele>851</ele>
        <time>2022-06-05T00:03:49Z</time>
      </trkpt>
      <trkpt lat="46.76809" lon="6.27281">
        <ele>851</ele>
        <time>2022-06-05T00:04:10Z</time>
      </trkpt>
      <trkpt lat="46.76819" lon="6.2728">
        <ele>851</ele>
        <time>2022-06-05T00:04:18Z</time>
      </trkpt>
      <trkpt lat="46.76833" lon="6.27282">
        <ele>851</ele>
        <time>2022-06-05T00:04:29Z</time>
      </trkpt>
      <trkpt lat="46.76847" lon="6.27285">
        <ele>851</ele>
        <time>2022-06-05T00:04:40Z</time>
      </trkpt>
      <trkpt lat="46.76863" lon="6.27293">
        <ele>850</ele>
        <time>2022-06-05T00:04:54Z</time>
      </trkpt>
      <trkpt lat="46.76878" lon="6.27304">
        <ele>850</ele>
        <time>2022-06-05T00:05:07Z</time>
      </trkpt>
      <trkpt lat="46.76889" lon="6.2731">
        <ele>850</ele>
        <time>2022-06-05T00:05:17Z</time>
      </trkpt>
      <trkpt lat="46.76903" lon="6.27317">
        <ele>850</ele>
        <time>2022-06-05T00:05:29Z</time>
      </trkpt>
      <trkpt lat="46.76914" lon="6.27321">
        <ele>850</ele>
        <time>2022-06-05T00:05:38Z</time>
      </trkpt>
      <trkpt lat="46.7692" lon="6.27321">
        <ele>850</ele>
        <time>2022-06-05T00:05:43Z</time>
      </trkpt>
      <trkpt lat="46.76937" lon="6.27318">
        <ele>850</ele>
        <time>2022-06-05T00:05:56Z</time>
      </trkpt>
      <trkpt lat="46.76957" lon="6.27314">
        <ele>850</ele>
        <time>2022-06-05T00:06:12Z</time>
      </trkpt>
      <trkpt lat="46.77008" lon="6.27305">
        <ele>849</ele>
        <time>2022-06-05T00:06:54Z</time>
      </trkpt>
      <trkpt lat="46.77046" lon="6.273">
        <ele>850</ele>
        <time>2022-06-05T00:07:24Z</time>
      </trkpt>
      <trkpt lat="46.77074" lon="6.27286">
        <ele>850</ele>
        <time>2022-06-05T00:07:48Z</time>
      </trkpt>
      <trkpt lat="46.77088" lon="6.27277">
        <ele>850</ele>
        <time>2022-06-05T00:08:00Z</time>
      </trkpt>
      <trkpt lat="46.77099" lon="6.27269">
        <ele>849</ele>
        <time>2022-06-05T00:08:10Z</time>
      </trkpt>
      <trkpt lat="46.77104" lon="6.2728">
        <ele>850</ele>
        <time>2022-06-05T00:08:17Z</time>
      </trkpt>
      <trkpt lat="46.77109" lon="6.27301">
        <ele>850</ele>
        <time>2022-06-05T00:08:30Z</time>
      </trkpt>
      <trkpt lat="46.77117" lon="6.27339">
        <ele>851</ele>
        <time>2022-06-05T00:08:51Z</time>
      </trkpt>
      <trkpt lat="46.77117" lon="6.27353">
        <ele>851</ele>
        <time>2022-06-05T00:08:59Z</time>
      </trkpt>
      <trkpt lat="46.7713" lon="6.2742">
        <ele>851</ele>
        <time>2022-06-05T00:09:37Z</time>
      </trkpt>
      <trkpt lat="46.77131" lon="6.2744">
        <ele>851</ele>
        <time>2022-06-05T00:09:48Z</time>
      </trkpt>
      <trkpt lat="46.77134" lon="6.27458">
        <ele>851</ele>
        <time>2022-06-05T00:09:58Z</time>
      </trkpt>
      <trkpt lat="46.77134" lon="6.27464">
        <ele>851</ele>
        <time>2022-06-05T00:10:02Z</time>
      </trkpt>
      <trkpt lat="46.77138" lon="6.2749">
        <ele>852</ele>
        <time>2022-06-05T00:10:16Z</time>
      </trkpt>
      <trkpt lat="46.77139" lon="6.27513">
        <ele>852</ele>
        <time>2022-06-05T00:10:29Z</time>
      </trkpt>
      <trkpt lat="46.7714" lon="6.27519">
        <ele>852</ele>
        <time>2022-06-05T00:10:32Z</time>
      </trkpt>
      <trkpt lat="46.77143" lon="6.27523">
        <ele>852</ele>
        <time>2022-06-05T00:10:36Z</time>
      </trkpt>
      <trkpt lat="46.77149" lon="6.27526">
        <ele>852</ele>
        <time>2022-06-05T00:10:41Z</time>
      </trkpt>
      <trkpt lat="46.77157" lon="6.27529">
        <ele>852</ele>
        <time>2022-06-05T00:10:47Z</time>
      </trkpt>
      <trkpt lat="46.77152" lon="6.27542">
        <ele>853</ele>
        <time>2022-06-05T00:10:56Z</time>
      </trkpt>
      <trkpt lat="46.7715" lon="6.27546">
        <ele>853</ele>
        <time>2022-06-05T00:10:58Z</time>
      </trkpt>
      <trkpt lat="46.77147" lon="6.27564">
        <ele>853</ele>
        <time>2022-06-05T00:11:08Z</time>
      </trkpt>
      <trkpt lat="46.77149" lon="6.27578">
        <ele>854</ele>
        <time>2022-06-05T00:11:16Z</time>
      </trkpt>
      <trkpt lat="46.77153" lon="6.27601">
        <ele>854</ele>
        <time>2022-06-05T00:11:29Z</time>
      </trkpt>
      <trkpt lat="46.77157" lon="6.27627">
        <ele>854</ele>
        <time>2022-06-05T00:11:44Z</time>
      </trkpt>
      <trkpt lat="46.7716" lon="6.27653">
        <ele>854</ele>
        <time>2022-06-05T00:11:58Z</time>
      </trkpt>
      <trkpt lat="46.77162" lon="6.27685">
        <ele>854</ele>
        <time>2022-06-05T00:12:16Z</time>
      </trkpt>
      <trkpt lat="46.77162" lon="6.27721">
        <ele>854</ele>
        <time>2022-06-05T00:12:36Z</time>
      </trkpt>
      <trkpt lat="46.77159" lon="6.27742">
        <ele>855</ele>
        <time>2022-06-05T00:12:48Z</time>
      </trkpt>
      <trkpt lat="46.77155" lon="6.27765">
        <ele>855</ele>
        <time>2022-06-05T00:13:01Z</time>
      </trkpt>
      <trkpt lat="46.77136" lon="6.27846">
        <ele>855</ele>
        <time>2022-06-05T00:13:48Z</time>
      </trkpt>
      <trkpt lat="46.77131" lon="6.27861">
        <ele>856</ele>
        <time>2022-06-05T00:13:57Z</time>
      </trkpt>
      <trkpt lat="46.77123" lon="6.27881">
        <ele>856</ele>
        <time>2022-06-05T00:14:09Z</time>
      </trkpt>
      <trkpt lat="46.77113" lon="6.27902">
        <ele>856</ele>
        <time>2022-06-05T00:14:24Z</time>
      </trkpt>
      <trkpt lat="46.77109" lon="6.27909">
        <ele>856</ele>
        <time>2022-06-05T00:14:29Z</time>
      </trkpt>
      <trkpt lat="46.77099" lon="6.27924">
        <ele>856</ele>
        <time>2022-06-05T00:14:40Z</time>
      </trkpt>
      <trkpt lat="46.77092" lon="6.27941">
        <ele>856</ele>
        <time>2022-06-05T00:14:51Z</time>
      </trkpt>
      <trkpt lat="46.77118" lon="6.27948">
        <ele>856</ele>
        <time>2022-06-05T00:15:12Z</time>
      </trkpt>
      <trkpt lat="46.77137" lon="6.2795">
        <ele>855</ele>
        <time>2022-06-05T00:15:27Z</time>
      </trkpt>
      <trkpt lat="46.77159" lon="6.2795">
        <ele>855</ele>
        <time>2022-06-05T00:15:45Z</time>
      </trkpt>
      <trkpt lat="46.77199" lon="6.27947">
        <ele>854</ele>
        <time>2022-06-05T00:16:17Z</time>
      </trkpt>
      <trkpt lat="46.77215" lon="6.27947">
        <ele>854</ele>
        <time>2022-06-05T00:16:30Z</time>
      </trkpt>
      <trkpt lat="46.77229" lon="6.27951">
        <ele>854</ele>
        <time>2022-06-05T00:16:41Z</time>
      </trkpt>
      <trkpt lat="46.77242" lon="6.27959">
        <ele>854</ele>
        <time>2022-06-05T00:16:53Z</time>
      </trkpt>
      <trkpt lat="46.77253" lon="6.27971">
        <ele>854</ele>
        <time>2022-06-05T00:17:04Z</time>
      </trkpt>
      <trkpt lat="46.77278" lon="6.28016">
        <ele>856</ele>
        <time>2022-06-05T00:17:35Z</time>
      </trkpt>
      <trkpt lat="46.773" lon="6.28044">
        <ele>857</ele>
        <time>2022-06-05T00:17:59Z</time>
      </trkpt>
      <trkpt lat="46.77313" lon="6.28055">
        <ele>858</ele>
        <time>2022-06-05T00:18:11Z</time>
      </trkpt>
      <trkpt lat="46.77321" lon="6.2806">
        <ele>858</ele>
        <time>2022-06-05T00:18:18Z</time>
      </trkpt>
      <trkpt lat="46.7734" lon="6.28065">
        <ele>859</ele>
        <time>2022-06-05T00:18:33Z</time>
      </trkpt>
      <trkpt lat="46.77349" lon="6.28065">
        <ele>859</ele>
        <time>2022-06-05T00:18:41Z</time>
      </trkpt>
      <trkpt lat="46.77361" lon="6.28063">
        <ele>859</ele>
        <time>2022-06-05T00:18:50Z</time>
      </trkpt>
      <trkpt lat="46.77372" lon="6.2806">
        <ele>859</ele>
        <time>2022-06-05T00:18:59Z</time>
      </trkpt>
      <trkpt lat="46.77384" lon="6.28055">
        <ele>859</ele>
        <time>2022-06-05T00:19:09Z</time>
      </trkpt>
      <trkpt lat="46.77436" lon="6.28028">
        <ele>859</ele>
        <time>2022-06-05T00:19:53Z</time>
      </trkpt>
      <trkpt lat="46.77452" lon="6.28019">
        <ele>859</ele>
        <time>2022-06-05T00:20:07Z</time>
      </trkpt>
      <trkpt lat="46.77452" lon="6.28008">
        <ele>859</ele>
        <time>2022-06-05T00:20:13Z</time>
      </trkpt>
      <trkpt lat="46.77454" lon="6.27996">
        <ele>858</ele>
        <time>2022-06-05T00:20:20Z</time>
      </trkpt>
      <trkpt lat="46.77458" lon="6.27984">
        <ele>858</ele>
        <time>2022-06-05T00:20:27Z</time>
      </trkpt>
      <trkpt lat="46.77465" lon="6.27968">
        <ele>858</ele>
        <time>2022-06-05T00:20:38Z</time>
      </trkpt>
      <trkpt lat="46.77471" lon="6.27957">
        <ele>858</ele>
        <time>2022-06-05T00:20:46Z</time>
      </trkpt>
      <trkpt lat="46.77478" lon="6.2794">
        <ele>859</ele>
        <time>2022-06-05T00:20:56Z</time>
      </trkpt>
      <trkpt lat="46.77484" lon="6.27923">
        <ele>859</ele>
        <time>2022-06-05T00:21:07Z</time>
      </trkpt>
      <trkpt lat="46.77497" lon="6.27872">
        <ele>857</ele>
        <time>2022-06-05T00:21:37Z</time>
      </trkpt>
      <trkpt lat="46.77502" lon="6.27858">
        <ele>857</ele>
        <time>2022-06-05T00:21:45Z</time>
      </trkpt>
      <trkpt lat="46.7751" lon="6.27845">
        <ele>856</ele>
        <time>2022-06-05T00:21:55Z</time>
      </trkpt>
      <trkpt lat="46.77519" lon="6.27836">
        <ele>856</ele>
        <time>2022-06-05T00:22:04Z</time>
      </trkpt>
      <trkpt lat="46.77533" lon="6.27824">
        <ele>856</ele>
        <time>2022-06-05T00:22:17Z</time>
      </trkpt>
      <trkpt lat="46.77545" lon="6.27817">
        <ele>856</ele>
        <time>2022-06-05T00:22:27Z</time>
      </trkpt>
      <trkpt lat="46.77557" lon="6.27811">
        <ele>856</ele>
        <time>2022-06-05T00:22:37Z</time>
      </trkpt>
      <trkpt lat="46.77572" lon="6.27806">
        <ele>856</ele>
        <time>2022-06-05T00:22:50Z</time>
      </trkpt>
      <trkpt lat="46.77591" lon="6.27802">
        <ele>856</ele>
        <time>2022-06-05T00:23:05Z</time>
      </trkpt>
      <trkpt lat="46.77607" lon="6.27802">
        <ele>856</ele>
        <time>2022-06-05T00:23:18Z</time>
      </trkpt>
      <trkpt lat="46.77622" lon="6.27803">
        <ele>856</ele>
        <time>2022-06-05T00:23:30Z</time>
      </trkpt>
      <trkpt lat="46.77633" lon="6.27806">
        <ele>856</ele>
        <time>2022-06-05T00:23:39Z</time>
      </trkpt>
      <trkpt lat="46.77647" lon="6.27812">
        <ele>857</ele>
        <time>2022-06-05T00:23:51Z</time>
      </trkpt>
      <trkpt lat="46.77663" lon="6.27822">
        <ele>857</ele>
        <time>2022-06-05T00:24:04Z</time>
      </trkpt>
      <trkpt lat="46.77678" lon="6.27827">
        <ele>857</ele>
        <time>2022-06-05T00:24:17Z</time>
      </trkpt>
      <trkpt lat="46.7769" lon="6.2783">
        <ele>857</ele>
        <time>2022-06-05T00:24:27Z</time>
      </trkpt>
      <trkpt lat="46.77704" lon="6.27831">
        <ele>857</ele>
        <time>2022-06-05T00:24:38Z</time>
      </trkpt>
      <trkpt lat="46.77707" lon="6.27831">
        <ele>857</ele>
        <time>2022-06-05T00:24:40Z</time>
      </trkpt>
      <trkpt lat="46.77718" lon="6.2783">
        <ele>857</ele>
        <time>2022-06-05T00:24:49Z</time>
      </trkpt>
      <trkpt lat="46.77751" lon="6.27825">
        <ele>856</ele>
        <time>2022-06-05T00:25:16Z</time>
      </trkpt>
      <trkpt lat="46.77777" lon="6.2782">
        <ele>856</ele>
        <time>2022-06-05T00:25:37Z</time>
      </trkpt>
      <trkpt lat="46.77796" lon="6.27822">
        <ele>856</ele>
        <time>2022-06-05T00:25:52Z</time>
      </trkpt>
      <trkpt lat="46.7781" lon="6.27827">
        <ele>856</ele>
        <time>2022-06-05T00:26:03Z</time>
      </trkpt>
      <trkpt lat="46.77836" lon="6.27834">
        <ele>857</ele>
        <time>2022-06-05T00:26:25Z</time>
      </trkpt>
      <trkpt lat="46.7788" lon="6.27851">
        <ele>856</ele>
        <time>2022-06-05T00:27:01Z</time>
      </trkpt>
      <trkpt lat="46.77925" lon="6.27864">
        <ele>856</ele>
        <time>2022-06-05T00:27:38Z</time>
      </trkpt>
      <trkpt lat="46.7794" lon="6.27871">
        <ele>856</ele>
        <time>2022-06-05T00:27:51Z</time>
      </trkpt>
      <trkpt lat="46.77947" lon="6.27877">
        <ele>857</ele>
        <time>2022-06-05T00:27:57Z</time>
      </trkpt>
      <trkpt lat="46.77959" lon="6.27878">
        <ele>857</ele>
        <time>2022-06-05T00:28:07Z</time>
      </trkpt>
      <trkpt lat="46.77972" lon="6.27881">
        <ele>857</ele>
        <time>2022-06-05T00:28:17Z</time>
      </trkpt>
      <trkpt lat="46.77992" lon="6.27889">
        <ele>857</ele>
        <time>2022-06-05T00:28:34Z</time>
      </trkpt>
      <trkpt lat="46.78006" lon="6.27897">
        <ele>857</ele>
        <time>2022-06-05T00:28:46Z</time>
      </trkpt>
      <trkpt lat="46.78016" lon="6.27905">
        <ele>858</ele>
        <time>2022-06-05T00:28:55Z</time>
      </trkpt>
      <trkpt lat="46.78027" lon="6.27913">
        <ele>858</ele>
        <time>2022-06-05T00:29:05Z</time>
      </trkpt>
      <trkpt lat="46.78034" lon="6.2792">
        <ele>858</ele>
        <time>2022-06-05T00:29:12Z</time>
      </trkpt>
      <trkpt lat="46.78045" lon="6.27932">
        <ele>858</ele>
        <time>2022-06-05T00:29:23Z</time>
      </trkpt>
      <trkpt lat="46.78059" lon="6.27949">
        <ele>858</ele>
        <time>2022-06-05T00:29:37Z</time>
      </trkpt>
      <trkpt lat="46.78076" lon="6.27972">
        <ele>859</ele>
        <time>2022-06-05T00:29:56Z</time>
      </trkpt>
      <trkpt lat="46.78094" lon="6.28001">
        <ele>859</ele>
        <time>2022-06-05T00:30:17Z</time>
      </trkpt>
      <trkpt lat="46.78115" lon="6.28033">
        <ele>859</ele>
        <time>2022-06-05T00:30:42Z</time>
      </trkpt>
      <trkpt lat="46.78154" lon="6.28095">
        <ele>857</ele>
        <time>2022-06-05T00:31:28Z</time>
      </trkpt>
      <trkpt lat="46.78165" lon="6.28111">
        <ele>856</ele>
        <time>2022-06-05T00:31:40Z</time>
      </trkpt>
      <trkpt lat="46.78203" lon="6.28173">
        <ele>855</ele>
        <time>2022-06-05T00:32:26Z</time>
      </trkpt>
      <trkpt lat="46.78232" lon="6.28218">
        <ele>856</ele>
        <time>2022-06-05T00:33:00Z</time>
      </trkpt>
      <trkpt lat="46.78246" lon="6.28239">
        <ele>856</ele>
        <time>2022-06-05T00:33:16Z</time>
      </trkpt>
      <trkpt lat="46.78264" lon="6.28269">
        <ele>857</ele>
        <time>2022-06-05T00:33:38Z</time>
      </trkpt>
      <trkpt lat="46.78267" lon="6.28272">
        <ele>857</ele>
        <time>2022-06-05T00:33:41Z</time>
      </trkpt>
      <trkpt lat="46.78269" lon="6.28276">
        <ele>857</ele>
        <time>2022-06-05T00:33:44Z</time>
      </trkpt>
      <trkpt lat="46.78274" lon="6.28282">
        <ele>857</ele>
        <time>2022-06-05T00:33:49Z</time>
      </trkpt>
      <trkpt lat="46.78294" lon="6.28308">
        <ele>858</ele>
        <time>2022-06-05T00:34:10Z</time>
      </trkpt>
      <trkpt lat="46.78314" lon="6.28335">
        <ele>859</ele>
        <time>2022-06-05T00:34:32Z</time>
      </trkpt>
      <trkpt lat="46.78328" lon="6.28359">
        <ele>859</ele>
        <time>2022-06-05T00:34:49Z</time>
      </trkpt>
      <trkpt lat="46.78335" lon="6.28357">
        <ele>859</ele>
        <time>2022-06-05T00:34:55Z</time>
      </trkpt>
      <trkpt lat="46.7834" lon="6.28357">
        <ele>859</ele>
        <time>2022-06-05T00:34:59Z</time>
      </trkpt>
      <trkpt lat="46.78353" lon="6.2836">
        <ele>858</ele>
        <time>2022-06-05T00:35:10Z</time>
      </trkpt>
      <trkpt lat="46.78354" lon="6.2836">
        <ele>858</ele>
        <time>2022-06-05T00:35:10Z</time>
      </trkpt>
      <trkpt lat="46.78362" lon="6.28363">
        <ele>858</ele>
        <time>2022-06-05T00:35:17Z</time>
      </trkpt>
      <trkpt lat="46.78369" lon="6.28365">
        <ele>858</ele>
        <time>2022-06-05T00:35:23Z</time>
      </trkpt>
      <trkpt lat="46.78388" lon="6.28366">
        <ele>857</ele>
        <time>2022-06-05T00:35:38Z</time>
      </trkpt>
      <trkpt lat="46.78395" lon="6.28365">
        <ele>856</ele>
        <time>2022-06-05T00:35:44Z</time>
      </trkpt>
      <trkpt lat="46.78403" lon="6.28361">
        <ele>856</ele>
        <time>2022-06-05T00:35:50Z</time>
      </trkpt>
      <trkpt lat="46.78407" lon="6.28371">
        <ele>856</ele>
        <time>2022-06-05T00:35:57Z</time>
      </trkpt>
      <trkpt lat="46.78409" lon="6.28385">
        <ele>856</ele>
        <time>2022-06-05T00:36:05Z</time>
      </trkpt>
      <trkpt lat="46.78429" lon="6.2836">
        <ele>855</ele>
        <time>2022-06-05T00:36:26Z</time>
      </trkpt>
      <trkpt lat="46.78472" lon="6.28302">
        <ele>853</ele>
        <time>2022-06-05T00:37:13Z</time>
      </trkpt>
      <trkpt lat="46.7848" lon="6.2829">
        <ele>853</ele>
        <time>2022-06-05T00:37:22Z</time>
      </trkpt>
      <trkpt lat="46.78524" lon="6.2823">
        <ele>851</ele>
        <time>2022-06-05T00:38:10Z</time>
      </trkpt>
      <trkpt lat="46.78536" lon="6.28213">
        <ele>850</ele>
        <time>2022-06-05T00:38:23Z</time>
      </trkpt>
      <trkpt lat="46.78591" lon="6.28138">
        <ele>849</ele>
        <time>2022-06-05T00:39:24Z</time>
      </trkpt>
      <trkpt lat="46.78634" lon="6.2808">
        <ele>849</ele>
        <time>2022-06-05T00:40:11Z</time>
      </trkpt>
      <trkpt lat="46.78639" lon="6.28071">
        <ele>849</ele>
        <time>2022-06-05T00:40:17Z</time>
      </trkpt>
      <trkpt lat="46.78647" lon="6.28061">
        <ele>849</ele>
        <time>2022-06-05T00:40:25Z</time>
      </trkpt>
      <trkpt lat="46.78665" lon="6.28029">
        <ele>848</ele>
        <time>2022-06-05T00:40:48Z</time>
      </trkpt>
      <trkpt lat="46.78666" lon="6.28025">
        <ele>848</ele>
        <time>2022-06-05T00:40:51Z</time>
      </trkpt>
      <trkpt lat="46.78665" lon="6.28015">
        <ele>848</ele>
        <time>2022-06-05T00:40:56Z</time>
      </trkpt>
      <trkpt lat="46.78656" lon="6.28004">
        <ele>848</ele>
        <time>2022-06-05T00:41:05Z</time>
      </trkpt>
      <trkpt lat="46.78662" lon="6.27993">
        <ele>848</ele>
        <time>2022-06-05T00:41:13Z</time>
      </trkpt>
      <trkpt lat="46.78664" lon="6.27987">
        <ele>848</ele>
        <time>2022-06-05T00:41:17Z</time>
      </trkpt>
      <trkpt lat="46.78674" lon="6.27968">
        <ele>849</ele>
        <time>2022-06-05T00:41:30Z</time>
      </trkpt>
      <trkpt lat="46.78678" lon="6.27958">
        <ele>849</ele>
        <time>2022-06-05T00:41:36Z</time>
      </trkpt>
      <trkpt lat="46.78685" lon="6.27945">
        <ele>849</ele>
        <time>2022-06-05T00:41:45Z</time>
      </trkpt>
      <trkpt lat="46.78687" lon="6.27942">
        <ele>849</ele>
        <time>2022-06-05T00:41:48Z</time>
      </trkpt>
      <trkpt lat="46.78696" lon="6.27925">
        <ele>849</ele>
        <time>2022-06-05T00:42:00Z</time>
      </trkpt>
      <trkpt lat="46.78703" lon="6.27926">
        <ele>849</ele>
        <time>2022-06-05T00:42:05Z</time>
      </trkpt>
      <trkpt lat="46.78708" lon="6.27924">
        <ele>849</ele>
        <time>2022-06-05T00:42:09Z</time>
      </trkpt>
      <trkpt lat="46.78709" lon="6.27923">
        <ele>849</ele>
        <time>2022-06-05T00:42:10Z</time>
      </trkpt>
      <trkpt lat="46.7875" lon="6.27868">
        <ele>850</ele>
        <time>2022-06-05T00:42:55Z</time>
      </trkpt>
      <trkpt lat="46.78799" lon="6.27805">
        <ele>852</ele>
        <time>2022-06-05T00:43:47Z</time>
      </trkpt>
      <trkpt lat="46.78799" lon="6.27791">
        <ele>852</ele>
        <time>2022-06-05T00:43:55Z</time>
      </trkpt>
      <trkpt lat="46.788" lon="6.27779">
        <ele>852</ele>
        <time>2022-06-05T00:44:02Z</time>
      </trkpt>
      <trkpt lat="46.78792" lon="6.2777">
        <ele>852</ele>
        <time>2022-06-05T00:44:10Z</time>
      </trkpt>
      <trkpt lat="46.78785" lon="6.2776">
        <ele>851</ele>
        <time>2022-06-05T00:44:17Z</time>
      </trkpt>
      <trkpt lat="46.78796" lon="6.27755">
        <ele>852</ele>
        <time>2022-06-05T00:44:27Z</time>
      </trkpt>
      <trkpt lat="46.78814" lon="6.27714">
        <ele>852</ele>
        <time>2022-06-05T00:44:53Z</time>
      </trkpt>
      <trkpt lat="46.78822" lon="6.27689">
        <ele>853</ele>
        <time>2022-06-05T00:45:09Z</time>
      </trkpt>
      <trkpt lat="46.78833" lon="6.27664">
        <ele>853</ele>
        <time>2022-06-05T00:45:25Z</time>
      </trkpt>
      <trkpt lat="46.78833" lon="6.27542">
        <ele>853</ele>
        <time>2022-06-05T00:46:32Z</time>
      </trkpt>
      <trkpt lat="46.78823" lon="6.27509">
        <ele>854</ele>
        <time>2022-06-05T00:46:52Z</time>
      </trkpt>
      <trkpt lat="46.78812" lon="6.27483">
        <ele>855</ele>
        <time>2022-06-05T00:47:08Z</time>
      </trkpt>
      <trkpt lat="46.7882" lon="6.27467">
        <ele>856</ele>
        <time>2022-06-05T00:47:19Z</time>
      </trkpt>
      <trkpt lat="46.78825" lon="6.27458">
        <ele>856</ele>
        <time>2022-06-05T00:47:26Z</time>
      </trkpt>
      <trkpt lat="46.78834" lon="6.27443">
        <ele>856</ele>
        <time>2022-06-05T00:47:37Z</time>
      </trkpt>
      <trkpt lat="46.78845" lon="6.27423">
        <ele>857</ele>
        <time>2022-06-05T00:47:51Z</time>
      </trkpt>
      <trkpt lat="46.78851" lon="6.2741">
        <ele>857</ele>
        <time>2022-06-05T00:47:59Z</time>
      </trkpt>
      <trkpt lat="46.78853" lon="6.27407">
        <ele>857</ele>
        <time>2022-06-05T00:48:02Z</time>
      </trkpt>
      <trkpt lat="46.78855" lon="6.27399">
        <ele>858</ele>
        <time>2022-06-05T00:48:06Z</time>
      </trkpt>
      <trkpt lat="46.78855" lon="6.27379">
        <ele>858</ele>
        <time>2022-06-05T00:48:17Z</time>
      </trkpt>
      <trkpt lat="46.78856" lon="6.27363">
        <ele>859</ele>
        <time>2022-06-05T00:48:26Z</time>
      </trkpt>
      <trkpt lat="46.78861" lon="6.27345">
        <ele>860</ele>
        <time>2022-06-05T00:48:37Z</time>
      </trkpt>
      <trkpt lat="46.78872" lon="6.27339">
        <ele>859</ele>
        <time>2022-06-05T00:48:46Z</time>
      </trkpt>
      <trkpt lat="46.78895" lon="6.27329">
        <ele>859</ele>
        <time>2022-06-05T00:49:05Z</time>
      </trkpt>
      <trkpt lat="46.78916" lon="6.27318">
        <ele>858</ele>
        <time>2022-06-05T00:49:23Z</time>
      </trkpt>
      <trkpt lat="46.78941" lon="6.27297">
        <ele>860</ele>
        <time>2022-06-05T00:49:46Z</time>
      </trkpt>
      <trkpt lat="46.78956" lon="6.27288">
        <ele>860</ele>
        <time>2022-06-05T00:49:59Z</time>
      </trkpt>
      <trkpt lat="46.78973" lon="6.27279">
        <ele>861</ele>
        <time>2022-06-05T00:50:14Z</time>
      </trkpt>
      <trkpt lat="46.78979" lon="6.27264">
        <ele>860</ele>
        <time>2022-06-05T00:50:23Z</time>
      </trkpt>
      <trkpt lat="46.78987" lon="6.27251">
        <ele>860</ele>
        <time>2022-06-05T00:50:33Z</time>
      </trkpt>
      <trkpt lat="46.78994" lon="6.27238">
        <ele>860</ele>
        <time>2022-06-05T00:50:42Z</time>
      </trkpt>
      <trkpt lat="46.79012" lon="6.27216">
        <ele>861</ele>
        <time>2022-06-05T00:51:01Z</time>
      </trkpt>
      <trkpt lat="46.79007" lon="6.27166">
        <ele>859</ele>
        <time>2022-06-05T00:51:29Z</time>
      </trkpt>
      <trkpt lat="46.79007" lon="6.27153">
        <ele>861</ele>
        <time>2022-06-05T00:51:36Z</time>
      </trkpt>
      <trkpt lat="46.79008" lon="6.27137">
        <ele>863</ele>
        <time>2022-06-05T00:51:45Z</time>
      </trkpt>
      <trkpt lat="46.79013" lon="6.27124">
        <ele>864</ele>
        <time>2022-06-05T00:51:53Z</time>
      </trkpt>
      <trkpt lat="46.79022" lon="6.27112">
        <ele>865</ele>
        <time>2022-06-05T00:52:02Z</time>
      </trkpt>
      <trkpt lat="46.79033" lon="6.27101">
        <ele>865</ele>
        <time>2022-06-05T00:52:13Z</time>
      </trkpt>
      <trkpt lat="46.79044" lon="6.27089">
        <ele>864</ele>
        <time>2022-06-05T00:52:24Z</time>
      </trkpt>
      <trkpt lat="46.79051" lon="6.2708">
        <ele>863</ele>
        <time>2022-06-05T00:52:32Z</time>
      </trkpt>
      <trkpt lat="46.79055" lon="6.27069">
        <ele>863</ele>
        <time>2022-06-05T00:52:38Z</time>
      </trkpt>
      <trkpt lat="46.79056" lon="6.27058">
        <ele>864</ele>
        <time>2022-06-05T00:52:45Z</time>
      </trkpt>
      <trkpt lat="46.79055" lon="6.27048">
        <ele>865</ele>
        <time>2022-06-05T00:52:50Z</time>
      </trkpt>
      <trkpt lat="46.79053" lon="6.27018">
        <ele>867</ele>
        <time>2022-06-05T00:53:07Z</time>
      </trkpt>
      <trkpt lat="46.79049" lon="6.27001">
        <ele>869</ele>
        <time>2022-06-05T00:53:17Z</time>
      </trkpt>
      <trkpt lat="46.79038" lon="6.26982">
        <ele>872</ele>
        <time>2022-06-05T00:53:30Z</time>
      </trkpt>
      <trkpt lat="46.79008" lon="6.26949">
        <ele>879</ele>
        <time>2022-06-05T00:54:00Z</time>
      </trkpt>
      <trkpt lat="46.78998" lon="6.26927">
        <ele>881</ele>
        <time>2022-06-05T00:54:15Z</time>
      </trkpt>
      <trkpt lat="46.78983" lon="6.269">
        <ele>886</ele>
        <time>2022-06-05T00:54:34Z</time>
      </trkpt>
      <trkpt lat="46.78976" lon="6.26878">
        <ele>887</ele>
        <time>2022-06-05T00:54:47Z</time>
      </trkpt>
      <trkpt lat="46.78964" lon="6.26847">
        <ele>890</ele>
        <time>2022-06-05T00:55:07Z</time>
      </trkpt>
      <trkpt lat="46.78957" lon="6.26831">
        <ele>891</ele>
        <time>2022-06-05T00:55:17Z</time>
      </trkpt>
      <trkpt lat="46.78948" lon="6.26828">
        <ele>895</ele>
        <time>2022-06-05T00:55:25Z</time>
      </trkpt>
      <trkpt lat="46.78942" lon="6.2682">
        <ele>897</ele>
        <time>2022-06-05T00:55:31Z</time>
      </trkpt>
      <trkpt lat="46.78937" lon="6.26818">
        <ele>899</ele>
        <time>2022-06-05T00:55:35Z</time>
      </trkpt>
      <trkpt lat="46.78932" lon="6.26807">
        <ele>900</ele>
        <time>2022-06-05T00:55:42Z</time>
      </trkpt>
      <trkpt lat="46.78917" lon="6.26793">
        <ele>905</ele>
        <time>2022-06-05T00:55:57Z</time>
      </trkpt>
      <trkpt lat="46.78904" lon="6.26774">
        <ele>908</ele>
        <time>2022-06-05T00:56:11Z</time>
      </trkpt>
      <trkpt lat="46.78879" lon="6.26727">
        <ele>913</ele>
        <time>2022-06-05T00:56:44Z</time>
      </trkpt>
      <trkpt lat="46.78851" lon="6.26678">
        <ele>921</ele>
        <time>2022-06-05T00:57:19Z</time>
      </trkpt>
      <trkpt lat="46.78832" lon="6.26641">
        <ele>925</ele>
        <time>2022-06-05T00:57:45Z</time>
      </trkpt>
      <trkpt lat="46.78807" lon="6.26604">
        <ele>929</ele>
        <time>2022-06-05T00:58:13Z</time>
      </trkpt>
      <trkpt lat="46.78765" lon="6.26553">
        <ele>938</ele>
        <time>2022-06-05T00:58:57Z</time>
      </trkpt>
      <trkpt lat="46.7875" lon="6.26529">
        <ele>941</ele>
        <time>2022-06-05T00:59:15Z</time>
      </trkpt>
      <trkpt lat="46.78736" lon="6.26502">
        <ele>943</ele>
        <time>2022-06-05T00:59:33Z</time>
      </trkpt>
      <trkpt lat="46.78725" lon="6.26486">
        <ele>944</ele>
        <time>2022-06-05T00:59:46Z</time>
      </trkpt>
      <trkpt lat="46.7871" lon="6.2647">
        <ele>947</ele>
        <time>2022-06-05T01:00:01Z</time>
      </trkpt>
      <trkpt lat="46.78701" lon="6.2645">
        <ele>948</ele>
        <time>2022-06-05T01:00:14Z</time>
      </trkpt>
      <trkpt lat="46.78706" lon="6.26495">
        <ele>951</ele>
        <time>2022-06-05T01:00:39Z</time>
      </trkpt>
      <trkpt lat="46.7871" lon="6.26542">
        <ele>953</ele>
        <time>2022-06-05T01:01:05Z</time>
      </trkpt>
      <trkpt lat="46.78726" lon="6.26592">
        <ele>952</ele>
        <time>2022-06-05T01:01:35Z</time>
      </trkpt>
      <trkpt lat="46.78741" lon="6.26653">
        <ele>954</ele>
        <time>2022-06-05T01:02:11Z</time>
      </trkpt>
      <trkpt lat="46.78716" lon="6.26622">
        <ele>956</ele>
        <time>2022-06-05T01:02:37Z</time>
      </trkpt>
      <trkpt lat="46.78692" lon="6.26553">
        <ele>958</ele>
        <time>2022-06-05T01:03:19Z</time>
      </trkpt>
      <trkpt lat="46.78668" lon="6.26488">
        <ele>961</ele>
        <time>2022-06-05T01:04:00Z</time>
      </trkpt>
      <trkpt lat="46.78627" lon="6.26417">
        <ele>962</ele>
        <time>2022-06-05T01:04:51Z</time>
      </trkpt>
      <trkpt lat="46.78595" lon="6.26381">
        <ele>964</ele>
        <time>2022-06-05T01:05:23Z</time>
      </trkpt>
      <trkpt lat="46.78583" lon="6.26361">
        <ele>964</ele>
        <time>2022-06-05T01:05:38Z</time>
      </trkpt>
      <trkpt lat="46.78564" lon="6.26309">
        <ele>962</ele>
        <time>2022-06-05T01:06:10Z</time>
      </trkpt>
      <trkpt lat="46.78542" lon="6.26292">
        <ele>964</ele>
        <time>2022-06-05T01:06:30Z</time>
      </trkpt>
      <trkpt lat="46.78522" lon="6.26262">
        <ele>966</ele>
        <time>2022-06-05T01:06:53Z</time>
      </trkpt>
      <trkpt lat="46.78498" lon="6.26244">
        <ele>968</ele>
        <time>2022-06-05T01:07:15Z</time>
      </trkpt>
      <trkpt lat="46.78474" lon="6.26221">
        <ele>971</ele>
        <time>2022-06-05T01:07:38Z</time>
      </trkpt>
      <trkpt lat="46.78457" lon="6.26206">
        <ele>972</ele>
        <time>2022-06-05T01:07:54Z</time>
      </trkpt>
      <trkpt lat="46.78448" lon="6.26189">
        <ele>972</ele>
        <time>2022-06-05T01:08:05Z</time>
      </trkpt>
      <trkpt lat="46.78427" lon="6.26153">
        <ele>972</ele>
        <time>2022-06-05T01:08:31Z</time>
      </trkpt>
      <trkpt lat="46.78418" lon="6.26108">
        <ele>972</ele>
        <time>2022-06-05T01:08:57Z</time>
      </trkpt>
      <trkpt lat="46.78418" lon="6.26104">
        <ele>971</ele>
        <time>2022-06-05T01:08:59Z</time>
      </trkpt>
      <trkpt lat="46.7839" lon="6.26052">
        <ele>970</ele>
        <time>2022-06-05T01:09:36Z</time>
      </trkpt>
      <trkpt lat="46.78344" lon="6.25962">
        <ele>967</ele>
        <time>2022-06-05T01:10:37Z</time>
      </trkpt>
      <trkpt lat="46.783" lon="6.25896">
        <ele>967</ele>
        <time>2022-06-05T01:11:28Z</time>
      </trkpt>
      <trkpt lat="46.78256" lon="6.25819">
        <ele>967</ele>
        <time>2022-06-05T01:12:23Z</time>
      </trkpt>
      <trkpt lat="46.78213" lon="6.25741">
        <ele>971</ele>
        <time>2022-06-05T01:13:18Z</time>
      </trkpt>
      <trkpt lat="46.78195" lon="6.25693">
        <ele>971</ele>
        <time>2022-06-05T01:13:48Z</time>
      </trkpt>
      <trkpt lat="46.78175" lon="6.25657">
        <ele>969</ele>
        <time>2022-06-05T01:14:13Z</time>
      </trkpt>
      <trkpt lat="46.78145" lon="6.25621">
        <ele>965</ele>
        <time>2022-06-05T01:14:44Z</time>
      </trkpt>
      <trkpt lat="46.78109" lon="6.25591">
        <ele>964</ele>
        <time>2022-06-05T01:15:18Z</time>
      </trkpt>
      <trkpt lat="46.78068" lon="6.25561">
        <ele>965</ele>
        <time>2022-06-05T01:15:54Z</time>
      </trkpt>
      <trkpt lat="46.78051" lon="6.25548">
        <ele>966</ele>
        <time>2022-06-05T01:16:10Z</time>
      </trkpt>
      <trkpt lat="46.78024" lon="6.25531">
        <ele>967</ele>
        <time>2022-06-05T01:16:33Z</time>
      </trkpt>
      <trkpt lat="46.78008" lon="6.25523">
        <ele>967</ele>
        <time>2022-06-05T01:16:47Z</time>
      </trkpt>
      <trkpt lat="46.7798" lon="6.25508">
        <ele>969</ele>
        <time>2022-06-05T01:17:11Z</time>
      </trkpt>
      <trkpt lat="46.77968" lon="6.25501">
        <ele>970</ele>
        <time>2022-06-05T01:17:21Z</time>
      </trkpt>
      <trkpt lat="46.77955" lon="6.2549">
        <ele>970</ele>
        <time>2022-06-05T01:17:33Z</time>
      </trkpt>
      <trkpt lat="46.77945" lon="6.25475">
        <ele>969</ele>
        <time>2022-06-05T01:17:45Z</time>
      </trkpt>
      <trkpt lat="46.77932" lon="6.25457">
        <ele>968</ele>
        <time>2022-06-05T01:17:59Z</time>
      </trkpt>
      <trkpt lat="46.77922" lon="6.25448">
        <ele>967</ele>
        <time>2022-06-05T01:18:08Z</time>
      </trkpt>
      <trkpt lat="46.77911" lon="6.25441">
        <ele>967</ele>
        <time>2022-06-05T01:18:18Z</time>
      </trkpt>
      <trkpt lat="46.77903" lon="6.25434">
        <ele>966</ele>
        <time>2022-06-05T01:18:26Z</time>
      </trkpt>
      <trkpt lat="46.77897" lon="6.25421">
        <ele>965</ele>
        <time>2022-06-05T01:18:34Z</time>
      </trkpt>
      <trkpt lat="46.77894" lon="6.25408">
        <ele>963</ele>
        <time>2022-06-05T01:18:42Z</time>
      </trkpt>
      <trkpt lat="46.77894" lon="6.25393">
        <ele>962</ele>
        <time>2022-06-05T01:18:50Z</time>
      </trkpt>
      <trkpt lat="46.77897" lon="6.25376">
        <ele>960</ele>
        <time>2022-06-05T01:19:00Z</time>
      </trkpt>
      <trkpt lat="46.77904" lon="6.25356">
        <ele>958</ele>
        <time>2022-06-05T01:19:12Z</time>
      </trkpt>
      <trkpt lat="46.77914" lon="6.25329">
        <ele>955</ele>
        <time>2022-06-05T01:19:29Z</time>
      </trkpt>
      <trkpt lat="46.77917" lon="6.25313">
        <ele>955</ele>
        <time>2022-06-05T01:19:38Z</time>
      </trkpt>
      <trkpt lat="46.77908" lon="6.25316">
        <ele>956</ele>
        <time>2022-06-05T01:19:45Z</time>
      </trkpt>
      <trkpt lat="46.77897" lon="6.25321">
        <ele>956</ele>
        <time>2022-06-05T01:19:54Z</time>
      </trkpt>
      <trkpt lat="46.77869" lon="6.25326">
        <ele>957</ele>
        <time>2022-06-05T01:20:17Z</time>
      </trkpt>
      <trkpt lat="46.77855" lon="6.25327">
        <ele>958</ele>
        <time>2022-06-05T01:20:28Z</time>
      </trkpt>
      <trkpt lat="46.77838" lon="6.25326">
        <ele>959</ele>
        <time>2022-06-05T01:20:42Z</time>
      </trkpt>
      <trkpt lat="46.77802" lon="6.25322">
        <ele>958</ele>
        <time>2022-06-05T01:21:11Z</time>
      </trkpt>
      <trkpt lat="46.77793" lon="6.25319">
        <ele>958</ele>
        <time>2022-06-05T01:21:18Z</time>
      </trkpt>
      <trkpt lat="46.77793" lon="6.25318">
        <ele>958</ele>
        <time>2022-06-05T01:21:19Z</time>
      </trkpt>
      <trkpt lat="46.7778" lon="6.25309">
        <ele>958</ele>
        <time>2022-06-05T01:21:30Z</time>
      </trkpt>
      <trkpt lat="46.77765" lon="6.25289">
        <ele>956</ele>
        <time>2022-06-05T01:21:47Z</time>
      </trkpt>
      <trkpt lat="46.77748" lon="6.25256">
        <ele>954</ele>
        <time>2022-06-05T01:22:09Z</time>
      </trkpt>
      <trkpt lat="46.77739" lon="6.25234">
        <ele>954</ele>
        <time>2022-06-05T01:22:23Z</time>
      </trkpt>
      <trkpt lat="46.77725" lon="6.25207">
        <ele>954</ele>
        <time>2022-06-05T01:22:42Z</time>
      </trkpt>
      <trkpt lat="46.77713" lon="6.25193">
        <ele>953</ele>
        <time>2022-06-05T01:22:54Z</time>
      </trkpt>
      <trkpt lat="46.77671" lon="6.2515">
        <ele>951</ele>
        <time>2022-06-05T01:23:35Z</time>
      </trkpt>
      <trkpt lat="46.77644" lon="6.25123">
        <ele>951</ele>
        <time>2022-06-05T01:24:02Z</time>
      </trkpt>
      <trkpt lat="46.77616" lon="6.25093">
        <ele>950</ele>
        <time>2022-06-05T01:24:29Z</time>
      </trkpt>
      <trkpt lat="46.77595" lon="6.25065">
        <ele>949</ele>
        <time>2022-06-05T01:24:52Z</time>
      </trkpt>
      <trkpt lat="46.77574" lon="6.25033">
        <ele>947</ele>
        <time>2022-06-05T01:25:17Z</time>
      </trkpt>
      <trkpt lat="46.77568" lon="6.25023">
        <ele>946</ele>
        <time>2022-06-05T01:25:24Z</time>
      </trkpt>
      <trkpt lat="46.77563" lon="6.25013">
        <ele>946</ele>
        <time>2022-06-05T01:25:31Z</time>
      </trkpt>
      <trkpt lat="46.77551" lon="6.24982">
        <ele>945</ele>
        <time>2022-06-05T01:25:50Z</time>
      </trkpt>
      <trkpt lat="46.77546" lon="6.2496">
        <ele>945</ele>
        <time>2022-06-05T01:26:03Z</time>
      </trkpt>
      <trkpt lat="46.77541" lon="6.24926">
        <ele>945</ele>
        <time>2022-06-05T01:26:22Z</time>
      </trkpt>
      <trkpt lat="46.77534" lon="6.24888">
        <ele>945</ele>
        <time>2022-06-05T01:26:44Z</time>
      </trkpt>
      <trkpt lat="46.77508" lon="6.24797">
        <ele>935</ele>
        <time>2022-06-05T01:27:38Z</time>
      </trkpt>
      <trkpt lat="46.77507" lon="6.24795">
        <ele>935</ele>
        <time>2022-06-05T01:27:39Z</time>
      </trkpt>
      <trkpt lat="46.77497" lon="6.24766">
        <ele>930</ele>
        <time>2022-06-05T01:27:57Z</time>
      </trkpt>
      <trkpt lat="46.77492" lon="6.24753">
        <ele>929</ele>
        <time>2022-06-05T01:28:05Z</time>
      </trkpt>
      <trkpt lat="46.77486" lon="6.24742">
        <ele>928</ele>
        <time>2022-06-05T01:28:13Z</time>
      </trkpt>
      <trkpt lat="46.77462" lon="6.24692">
        <ele>923</ele>
        <time>2022-06-05T01:28:46Z</time>
      </trkpt>
      <trkpt lat="46.77444" lon="6.24657">
        <ele>920</ele>
        <time>2022-06-05T01:29:10Z</time>
      </trkpt>
      <trkpt lat="46.7743" lon="6.24628">
        <ele>919</ele>
        <time>2022-06-05T01:29:30Z</time>
      </trkpt>
      <trkpt lat="46.77413" lon="6.24594">
        <ele>916</ele>
        <time>2022-06-05T01:29:53Z</time>
      </trkpt>
      <trkpt lat="46.77392" lon="6.24553">
        <ele>916</ele>
        <time>2022-06-05T01:30:21Z</time>
      </trkpt>
      <trkpt lat="46.77383" lon="6.24534">
        <ele>916</ele>
        <time>2022-06-05T01:30:34Z</time>
      </trkpt>
      <trkpt lat="46.77369" lon="6.24508">
        <ele>915</ele>
        <time>2022-06-05T01:30:52Z</time>
      </trkpt>
      <trkpt lat="46.7735" lon="6.24467">
        <ele>914</ele>
        <time>2022-06-05T01:31:19Z</time>
      </trkpt>
      <trkpt lat="46.7732" lon="6.24407">
        <ele>912</ele>
        <time>2022-06-05T01:32:00Z</time>
      </trkpt>
      <trkpt lat="46.77298" lon="6.24362">
        <ele>913</ele>
        <time>2022-06-05T01:32:30Z</time>
      </trkpt>
      <trkpt lat="46.77277" lon="6.24322">
        <ele>913</ele>
        <time>2022-06-05T01:32:58Z</time>
      </trkpt>
      <trkpt lat="46.77265" lon="6.24302">
        <ele>913</ele>
        <time>2022-06-05T01:33:12Z</time>
      </trkpt>
      <trkpt lat="46.77253" lon="6.24285">
        <ele>913</ele>
        <time>2022-06-05T01:33:26Z</time>
      </trkpt>
      <trkpt lat="46.7724" lon="6.24272">
        <ele>912</ele>
        <time>2022-06-05T01:33:38Z</time>
      </trkpt>
      <trkpt lat="46.77224" lon="6.24252">
        <ele>912</ele>
        <time>2022-06-05T01:33:55Z</time>
      </trkpt>
      <trkpt lat="46.77201" lon="6.24225">
        <ele>913</ele>
        <time>2022-06-05T01:34:19Z</time>
      </trkpt>
      <trkpt lat="46.77173" lon="6.24189">
        <ele>910</ele>
        <time>2022-06-05T01:34:49Z</time>
      </trkpt>
      <trkpt lat="46.77155" lon="6.24163">
        <ele>910</ele>
        <time>2022-06-05T01:35:09Z</time>
      </trkpt>
      <trkpt lat="46.77143" lon="6.24147">
        <ele>910</ele>
        <time>2022-06-05T01:35:22Z</time>
      </trkpt>
      <trkpt lat="46.77132" lon="6.24133">
        <ele>910</ele>
        <time>2022-06-05T01:35:34Z</time>
      </trkpt>
      <trkpt lat="46.77125" lon="6.24128">
        <ele>910</ele>
        <time>2022-06-05T01:35:40Z</time>
      </trkpt>
      <trkpt lat="46.77112" lon="6.24123">
        <ele>909</ele>
        <time>2022-06-05T01:35:51Z</time>
      </trkpt>
      <trkpt lat="46.77089" lon="6.24121">
        <ele>906</ele>
        <time>2022-06-05T01:36:09Z</time>
      </trkpt>
      <trkpt lat="46.77058" lon="6.24117">
        <ele>906</ele>
        <time>2022-06-05T01:36:34Z</time>
      </trkpt>
      <trkpt lat="46.77024" lon="6.24111">
        <ele>907</ele>
        <time>2022-06-05T01:37:02Z</time>
      </trkpt>
      <trkpt lat="46.77016" lon="6.2411">
        <ele>907</ele>
        <time>2022-06-05T01:37:08Z</time>
      </trkpt>
      <trkpt lat="46.77009" lon="6.24108">
        <ele>907</ele>
        <time>2022-06-05T01:37:14Z</time>
      </trkpt>
      <trkpt lat="46.77" lon="6.24104">
        <ele>907</ele>
        <time>2022-06-05T01:37:22Z</time>
      </trkpt>
      <trkpt lat="46.76991" lon="6.24098">
        <ele>907</ele>
        <time>2022-06-05T01:37:29Z</time>
      </trkpt>
      <trkpt lat="46.76991" lon="6.24088">
        <ele>907</ele>
        <time>2022-06-05T01:37:35Z</time>
      </trkpt>
      <trkpt lat="46.76986" lon="6.24079">
        <ele>907</ele>
        <time>2022-06-05T01:37:41Z</time>
      </trkpt>
      <trkpt lat="46.76963" lon="6.24049">
        <ele>907</ele>
        <time>2022-06-05T01:38:06Z</time>
      </trkpt>
      <trkpt lat="46.76958" lon="6.24041">
        <ele>907</ele>
        <time>2022-06-05T01:38:12Z</time>
      </trkpt>
      <trkpt lat="46.76928" lon="6.24001">
        <ele>908</ele>
        <time>2022-06-05T01:38:45Z</time>
      </trkpt>
      <trkpt lat="46.76914" lon="6.23983">
        <ele>908</ele>
        <time>2022-06-05T01:38:59Z</time>
      </trkpt>
      <trkpt lat="46.76909" lon="6.23973">
        <ele>908</ele>
        <time>2022-06-05T01:39:06Z</time>
      </trkpt>
      <trkpt lat="46.76892" lon="6.23958">
        <ele>909</ele>
        <time>2022-06-05T01:39:22Z</time>
      </trkpt>
      <trkpt lat="46.76888" lon="6.23955">
        <ele>909</ele>
        <time>2022-06-05T01:39:26Z</time>
      </trkpt>
      <trkpt lat="46.76874" lon="6.23972">
        <ele>909</ele>
        <time>2022-06-05T01:39:40Z</time>
      </trkpt>
      <trkpt lat="46.76874" lon="6.23982">
        <ele>909</ele>
        <time>2022-06-05T01:39:46Z</time>
      </trkpt>
      <trkpt lat="46.76869" lon="6.24007">
        <ele>908</ele>
        <time>2022-06-05T01:40:00Z</time>
      </trkpt>
      <trkpt lat="46.76868" lon="6.24009">
        <ele>908</ele>
        <time>2022-06-05T01:40:02Z</time>
      </trkpt>
      <trkpt lat="46.76865" lon="6.24032">
        <ele>908</ele>
        <time>2022-06-05T01:40:14Z</time>
      </trkpt>
      <trkpt lat="46.76862" lon="6.24051">
        <ele>907</ele>
        <time>2022-06-05T01:40:25Z</time>
      </trkpt>
      <trkpt lat="46.76859" lon="6.24073">
        <ele>906</ele>
        <time>2022-06-05T01:40:37Z</time>
      </trkpt>
      <trkpt lat="46.76857" lon="6.24104">
        <ele>906</ele>
        <time>2022-06-05T01:40:55Z</time>
      </trkpt>
      <trkpt lat="46.76853" lon="6.24105">
        <ele>906</ele>
        <time>2022-06-05T01:40:58Z</time>
      </trkpt>
      <trkpt lat="46.76848" lon="6.24105">
        <ele>906</ele>
        <time>2022-06-05T01:41:02Z</time>
      </trkpt>
      <trkpt lat="46.76831" lon="6.24108">
        <ele>906</ele>
        <time>2022-06-05T01:41:15Z</time>
      </trkpt>
      <trkpt lat="46.76822" lon="6.24107">
        <ele>907</ele>
        <time>2022-06-05T01:41:23Z</time>
      </trkpt>
      <trkpt lat="46.76812" lon="6.24104">
        <ele>907</ele>
        <time>2022-06-05T01:41:31Z</time>
      </trkpt>
      <trkpt lat="46.76809" lon="6.24123">
        <ele>907</ele>
        <time>2022-06-05T01:41:42Z</time>
      </trkpt>
      <trkpt lat="46.76803" lon="6.24144">
        <ele>907</ele>
        <time>2022-06-05T01:41:54Z</time>
      </trkpt>
      <trkpt lat="46.768" lon="6.2416">
        <ele>907</ele>
        <time>2022-06-05T01:42:03Z</time>
      </trkpt>
      <trkpt lat="46.76798" lon="6.24174">
        <ele>907</ele>
        <time>2022-06-05T01:42:11Z</time>
      </trkpt>
      <trkpt lat="46.76797" lon="6.2419">
        <ele>907</ele>
        <time>2022-06-05T01:42:20Z</time>
      </trkpt>
      <trkpt lat="46.76794" lon="6.24203">
        <ele>907</ele>
        <time>2022-06-05T01:42:27Z</time>
      </trkpt>
      <trkpt lat="46.76788" lon="6.24225">
        <ele>906</ele>
        <time>2022-06-05T01:42:40Z</time>
      </trkpt>
      <trkpt lat="46.76779" lon="6.24247">
        <ele>906</ele>
        <time>2022-06-05T01:42:54Z</time>
      </trkpt>
      <trkpt lat="46.76771" lon="6.24269">
        <ele>905</ele>
        <time>2022-06-05T01:43:08Z</time>
      </trkpt>
      <trkpt lat="46.7676" lon="6.2429">
        <ele>904</ele>
        <time>2022-06-05T01:43:23Z</time>
      </trkpt>
      <trkpt lat="46.76745" lon="6.24308">
        <ele>903</ele>
        <time>2022-06-05T01:43:38Z</time>
      </trkpt>
      <trkpt lat="46.76725" lon="6.24328">
        <ele>903</ele>
        <time>2022-06-05T01:43:58Z</time>
      </trkpt>
      <trkpt lat="46.76707" lon="6.2435">
        <ele>903</ele>
        <time>2022-06-05T01:44:16Z</time>
      </trkpt>
      <trkpt lat="46.76695" lon="6.24372">
        <ele>903</ele>
        <time>2022-06-05T01:44:32Z</time>
      </trkpt>
      <trkpt lat="46.76685" lon="6.24396">
        <ele>903</ele>
        <time>2022-06-05T01:44:47Z</time>
      </trkpt>
      <trkpt lat="46.7667" lon="6.24426">
        <ele>903</ele>
        <time>2022-06-05T01:45:08Z</time>
      </trkpt>
      <trkpt lat="46.76658" lon="6.24446">
        <ele>901</ele>
        <time>2022-06-05T01:45:22Z</time>
      </trkpt>
      <trkpt lat="46.76643" lon="6.24463">
        <ele>900</ele>
        <time>2022-06-05T01:45:38Z</time>
      </trkpt>
      <trkpt lat="46.76628" lon="6.24471">
        <ele>899</ele>
        <time>2022-06-05T01:45:50Z</time>
      </trkpt>
      <trkpt lat="46.76608" lon="6.24474">
        <ele>898</ele>
        <time>2022-06-05T01:46:06Z</time>
      </trkpt>
      <trkpt lat="46.76586" lon="6.24472">
        <ele>897</ele>
        <time>2022-06-05T01:46:24Z</time>
      </trkpt>
      <trkpt lat="46.76564" lon="6.24465">
        <ele>895</ele>
        <time>2022-06-05T01:46:42Z</time>
      </trkpt>
      <trkpt lat="46.76542" lon="6.24453">
        <ele>893</ele>
        <time>2022-06-05T01:47:01Z</time>
      </trkpt>
      <trkpt lat="46.76521" lon="6.24439">
        <ele>892</ele>
        <time>2022-06-05T01:47:20Z</time>
      </trkpt>
      <trkpt lat="46.76498" lon="6.24422">
        <ele>890</ele>
        <time>2022-06-05T01:47:40Z</time>
      </trkpt>
      <trkpt lat="46.76491" lon="6.24416">
        <ele>889</ele>
        <time>2022-06-05T01:47:47Z</time>
      </trkpt>
      <trkpt lat="46.76465" lon="6.24386">
        <ele>886</ele>
        <time>2022-06-05T01:48:13Z</time>
      </trkpt>
      <trkpt lat="46.76457" lon="6.24381">
        <ele>885</ele>
        <time>2022-06-05T01:48:20Z</time>
      </trkpt>
      <trkpt lat="46.76451" lon="6.2438">
        <ele>885</ele>
        <time>2022-06-05T01:48:25Z</time>
      </trkpt>
      <trkpt lat="46.76444" lon="6.24382">
        <ele>884</ele>
        <time>2022-06-05T01:48:31Z</time>
      </trkpt>
      <trkpt lat="46.76433" lon="6.24389">
        <ele>883</ele>
        <time>2022-06-05T01:48:40Z</time>
      </trkpt>
      <trkpt lat="46.76415" lon="6.24403">
        <ele>882</ele>
        <time>2022-06-05T01:48:57Z</time>
      </trkpt>
      <trkpt lat="46.764" lon="6.24416">
        <ele>880</ele>
        <time>2022-06-05T01:49:11Z</time>
      </trkpt>
      <trkpt lat="46.76389" lon="6.24425">
        <ele>879</ele>
        <time>2022-06-05T01:49:21Z</time>
      </trkpt>
      <trkpt lat="46.7638" lon="6.2443">
        <ele>877</ele>
        <time>2022-06-05T01:49:29Z</time>
      </trkpt>
      <trkpt lat="46.76374" lon="6.24431">
        <ele>877</ele>
        <time>2022-06-05T01:49:33Z</time>
      </trkpt>
      <trkpt lat="46.76364" lon="6.2443">
        <ele>875</ele>
        <time>2022-06-05T01:49:41Z</time>
      </trkpt>
      <trkpt lat="46.76323" lon="6.24424">
        <ele>871</ele>
        <time>2022-06-05T01:50:14Z</time>
      </trkpt>
      <trkpt lat="46.76307" lon="6.24425">
        <ele>870</ele>
        <time>2022-06-05T01:50:27Z</time>
      </trkpt>
      <trkpt lat="46.76269" lon="6.24431">
        <ele>868</ele>
        <time>2022-06-05T01:50:58Z</time>
      </trkpt>
      <trkpt lat="46.76246" lon="6.2444">
        <ele>867</ele>
        <time>2022-06-05T01:51:17Z</time>
      </trkpt>
      <trkpt lat="46.76202" lon="6.24462">
        <ele>863</ele>
        <time>2022-06-05T01:51:54Z</time>
      </trkpt>
      <trkpt lat="46.76174" lon="6.24479">
        <ele>860</ele>
        <time>2022-06-05T01:52:19Z</time>
      </trkpt>
      <trkpt lat="46.76152" lon="6.24495">
        <ele>858</ele>
        <time>2022-06-05T01:52:38Z</time>
      </trkpt>
      <trkpt lat="46.76133" lon="6.24512">
        <ele>858</ele>
        <time>2022-06-05T01:52:56Z</time>
      </trkpt>
      <trkpt lat="46.76113" lon="6.24525">
        <ele>858</ele>
        <time>2022-06-05T01:53:14Z</time>
      </trkpt>
      <trkpt lat="46.76091" lon="6.24543">
        <ele>857</ele>
        <time>2022-06-05T01:53:34Z</time>
      </trkpt>
      <trkpt lat="46.76089" lon="6.24544">
        <ele>857</ele>
        <time>2022-06-05T01:53:36Z</time>
      </trkpt>
      <trkpt lat="46.76083" lon="6.24548">
        <ele>857</ele>
        <time>2022-06-05T01:53:41Z</time>
      </trkpt>
      <trkpt lat="46.7606" lon="6.24566">
        <ele>857</ele>
        <time>2022-06-05T01:54:02Z</time>
      </trkpt>
      <trkpt lat="46.75983" lon="6.24624">
        <ele>857</ele>
        <time>2022-06-05T01:55:11Z</time>
      </trkpt>
      <trkpt lat="46.75932" lon="6.24664">
        <ele>857</ele>
        <time>2022-06-05T01:55:58Z</time>
      </trkpt>
      <trkpt lat="46.75862" lon="6.24718">
        <ele>866</ele>
        <time>2022-06-05T01:57:01Z</time>
      </trkpt>
      <trkpt lat="46.75856" lon="6.24723">
        <ele>867</ele>
        <time>2022-06-05T01:57:07Z</time>
      </trkpt>
      <trkpt lat="46.75844" lon="6.24737">
        <ele>869</ele>
        <time>2022-06-05T01:57:19Z</time>
      </trkpt>
      <trkpt lat="46.75843" lon="6.24739">
        <ele>869</ele>
        <time>2022-06-05T01:57:20Z</time>
      </trkpt>
      <trkpt lat="46.75839" lon="6.24751">
        <ele>870</ele>
        <time>2022-06-05T01:57:28Z</time>
      </trkpt>
      <trkpt lat="46.75836" lon="6.24763">
        <ele>871</ele>
        <time>2022-06-05T01:57:35Z</time>
      </trkpt>
      <trkpt lat="46.75835" lon="6.24769">
        <ele>872</ele>
        <time>2022-06-05T01:57:38Z</time>
      </trkpt>
      <trkpt lat="46.75835" lon="6.24778">
        <ele>872</ele>
        <time>2022-06-05T01:57:43Z</time>
      </trkpt>
      <trkpt lat="46.75833" lon="6.24787">
        <ele>873</ele>
        <time>2022-06-05T01:57:48Z</time>
      </trkpt>
      <trkpt lat="46.75828" lon="6.24801">
        <ele>875</ele>
        <time>2022-06-05T01:57:57Z</time>
      </trkpt>
      <trkpt lat="46.75827" lon="6.24811">
        <ele>876</ele>
        <time>2022-06-05T01:58:02Z</time>
      </trkpt>
      <trkpt lat="46.75829" lon="6.24874">
        <ele>877</ele>
        <time>2022-06-05T01:58:37Z</time>
      </trkpt>
      <trkpt lat="46.75827" lon="6.24899">
        <ele>877</ele>
        <time>2022-06-05T01:58:51Z</time>
      </trkpt>
      <trkpt lat="46.75831" lon="6.24926">
        <ele>876</ele>
        <time>2022-06-05T01:59:06Z</time>
      </trkpt>
      <trkpt lat="46.75833" lon="6.2495">
        <ele>876</ele>
        <time>2022-06-05T01:59:19Z</time>
      </trkpt>
      <trkpt lat="46.75836" lon="6.24968">
        <ele>876</ele>
        <time>2022-06-05T01:59:29Z</time>
      </trkpt>
      <trkpt lat="46.75838" lon="6.24987">
        <ele>875</ele>
        <time>2022-06-05T01:59:40Z</time>
      </trkpt>
      <trkpt lat="46.75836" lon="6.25031">
        <ele>876</ele>
        <time>2022-06-05T02:00:04Z</time>
      </trkpt>
      <trkpt lat="46.75832" lon="6.25059">
        <ele>876</ele>
        <time>2022-06-05T02:00:20Z</time>
      </trkpt>
      <trkpt lat="46.75824" lon="6.25081">
        <ele>879</ele>
        <time>2022-06-05T02:00:34Z</time>
      </trkpt>
      <trkpt lat="46.75814" lon="6.25099">
        <ele>881</ele>
        <time>2022-06-05T02:00:46Z</time>
      </trkpt>
      <trkpt lat="46.75806" lon="6.25117">
        <ele>883</ele>
        <time>2022-06-05T02:00:58Z</time>
      </trkpt>
      <trkpt lat="46.75801" lon="6.25147">
        <ele>883</ele>
        <time>2022-06-05T02:01:15Z</time>
      </trkpt>
      <trkpt lat="46.75795" lon="6.25174">
        <ele>884</ele>
        <time>2022-06-05T02:01:31Z</time>
      </trkpt>
      <trkpt lat="46.75781" lon="6.25218">
        <ele>886</ele>
        <time>2022-06-05T02:01:57Z</time>
      </trkpt>
      <trkpt lat="46.75771" lon="6.25247">
        <ele>888</ele>
        <time>2022-06-05T02:02:15Z</time>
      </trkpt>
      <trkpt lat="46.75767" lon="6.25262">
        <ele>889</ele>
        <time>2022-06-05T02:02:24Z</time>
      </trkpt>
      <trkpt lat="46.75764" lon="6.25281">
        <ele>889</ele>
        <time>2022-06-05T02:02:35Z</time>
      </trkpt>
      <trkpt lat="46.75763" lon="6.25298">
        <ele>889</ele>
        <time>2022-06-05T02:02:44Z</time>
      </trkpt>
      <trkpt lat="46.75764" lon="6.25312">
        <ele>888</ele>
        <time>2022-06-05T02:02:52Z</time>
      </trkpt>
      <trkpt lat="46.75764" lon="6.25324">
        <ele>888</ele>
        <time>2022-06-05T02:02:58Z</time>
      </trkpt>
      <trkpt lat="46.75763" lon="6.25344">
        <ele>887</ele>
        <time>2022-06-05T02:03:09Z</time>
      </trkpt>
      <trkpt lat="46.7576" lon="6.25367">
        <ele>886</ele>
        <time>2022-06-05T02:03:22Z</time>
      </trkpt>
      <trkpt lat="46.75755" lon="6.25393">
        <ele>885</ele>
        <time>2022-06-05T02:03:37Z</time>
      </trkpt>
      <trkpt lat="46.75747" lon="6.2544">
        <ele>884</ele>
        <time>2022-06-05T02:04:04Z</time>
      </trkpt>
      <trkpt lat="46.75733" lon="6.25511">
        <ele>883</ele>
        <time>2022-06-05T02:04:44Z</time>
      </trkpt>
      <trkpt lat="46.75728" lon="6.25531">
        <ele>883</ele>
        <time>2022-06-05T02:04:56Z</time>
      </trkpt>
      <trkpt lat="46.75726" lon="6.25555">
        <ele>883</ele>
        <time>2022-06-05T02:05:09Z</time>
      </trkpt>
      <trkpt lat="46.75709" lon="6.25588">
        <ele>885</ele>
        <time>2022-06-05T02:05:32Z</time>
      </trkpt>
      <trkpt lat="46.75675" lon="6.25652">
        <ele>890</ele>
        <time>2022-06-05T02:06:16Z</time>
      </trkpt>
      <trkpt lat="46.75688" lon="6.25684">
        <ele>890</ele>
        <time>2022-06-05T02:06:37Z</time>
      </trkpt>
      <trkpt lat="46.75708" lon="6.25722">
        <ele>892</ele>
        <time>2022-06-05T02:07:03Z</time>
      </trkpt>
      <trkpt lat="46.75724" lon="6.2576">
        <ele>894</ele>
        <time>2022-06-05T02:07:28Z</time>
      </trkpt>
      <trkpt lat="46.7574" lon="6.25812">
        <ele>896</ele>
        <time>2022-06-05T02:07:59Z</time>
      </trkpt>
      <trkpt lat="46.75749" lon="6.25871">
        <ele>895</ele>
        <time>2022-06-05T02:08:32Z</time>
      </trkpt>
      <trkpt lat="46.75753" lon="6.25906">
        <ele>894</ele>
        <time>2022-06-05T02:08:52Z</time>
      </trkpt>
      <trkpt lat="46.75775" lon="6.25985">
        <ele>883</ele>
        <time>2022-06-05T02:09:38Z</time>
      </trkpt>
      <trkpt lat="46.75781" lon="6.26016">
        <ele>880</ele>
        <time>2022-06-05T02:09:56Z</time>
      </trkpt>
      <trkpt lat="46.75783" lon="6.2605">
        <ele>879</ele>
        <time>2022-06-05T02:10:15Z</time>
      </trkpt>
      <trkpt lat="46.75787" lon="6.26077">
        <ele>878</ele>
        <time>2022-06-05T02:10:30Z</time>
      </trkpt>
      <trkpt lat="46.75804" lon="6.26152">
        <ele>874</ele>
        <time>2022-06-05T02:11:13Z</time>
      </trkpt>
      <trkpt lat="46.75814" lon="6.26189">
        <ele>873</ele>
        <time>2022-06-05T02:11:35Z</time>
      </trkpt>
      <trkpt lat="46.75823" lon="6.26206">
        <ele>873</ele>
        <time>2022-06-05T02:11:47Z</time>
      </trkpt>
      <trkpt lat="46.75819" lon="6.26224">
        <ele>872</ele>
        <time>2022-06-05T02:11:57Z</time>
      </trkpt>
      <trkpt lat="46.75813" lon="6.26237">
        <ele>872</ele>
        <time>2022-06-05T02:12:06Z</time>
      </trkpt>
      <trkpt lat="46.75804" lon="6.26249">
        <ele>872</ele>
        <time>2022-06-05T02:12:16Z</time>
      </trkpt>
      <trkpt lat="46.75816" lon="6.26277">
        <ele>874</ele>
        <time>2022-06-05T02:12:34Z</time>
      </trkpt>
      <trkpt lat="46.75822" lon="6.26293">
        <ele>875</ele>
        <time>2022-06-05T02:12:44Z</time>
      </trkpt>
      <trkpt lat="46.7583" lon="6.26311">
        <ele>874</ele>
        <time>2022-06-05T02:12:56Z</time>
      </trkpt>
      <trkpt lat="46.75835" lon="6.26319">
        <ele>874</ele>
        <time>2022-06-05T02:13:02Z</time>
      </trkpt>
      <trkpt lat="46.75856" lon="6.26346">
        <ele>874</ele>
        <time>2022-06-05T02:13:24Z</time>
      </trkpt>
      <trkpt lat="46.75873" lon="6.26357">
        <ele>873</ele>
        <time>2022-06-05T02:13:39Z</time>
      </trkpt>
      <trkpt lat="46.75925" lon="6.26384">
        <ele>869</ele>
        <time>2022-06-05T02:14:23Z</time>
      </trkpt>
      <trkpt lat="46.75954" lon="6.26428">
        <ele>870</ele>
        <time>2022-06-05T02:14:57Z</time>
      </trkpt>
      <trkpt lat="46.75972" lon="6.26487">
        <ele>872</ele>
        <time>2022-06-05T02:15:32Z</time>
      </trkpt>
      <trkpt lat="46.75959" lon="6.26505">
        <ele>876</ele>
        <time>2022-06-05T02:15:47Z</time>
      </trkpt>
      <trkpt lat="46.75957" lon="6.26526">
        <ele>879</ele>
        <time>2022-06-05T02:15:58Z</time>
      </trkpt>
      <trkpt lat="46.75958" lon="6.2656">
        <ele>883</ele>
        <time>2022-06-05T02:16:17Z</time>
      </trkpt>
      <trkpt lat="46.75958" lon="6.26603">
        <ele>888</ele>
        <time>2022-06-05T02:16:40Z</time>
      </trkpt>
      <trkpt lat="46.7595" lon="6.26652">
        <ele>896</ele>
        <time>2022-06-05T02:17:08Z</time>
      </trkpt>
      <trkpt lat="46.75954" lon="6.26672">
        <ele>897</ele>
        <time>2022-06-05T02:17:20Z</time>
      </trkpt>
      <trkpt lat="46.75972" lon="6.26687">
        <ele>896</ele>
        <time>2022-06-05T02:17:36Z</time>
      </trkpt>
      <trkpt lat="46.75986" lon="6.26721">
        <ele>898</ele>
        <time>2022-06-05T02:17:58Z</time>
      </trkpt>
      <trkpt lat="46.75989" lon="6.26759">
        <ele>901</ele>
        <time>2022-06-05T02:18:19Z</time>
      </trkpt>
      <trkpt lat="46.76001" lon="6.26777">
        <ele>901</ele>
        <time>2022-06-05T02:18:33Z</time>
      </trkpt>
      <trkpt lat="46.76004" lon="6.26799">
        <ele>902</ele>
        <time>2022-06-05T02:18:45Z</time>
      </trkpt>
      <trkpt lat="46.76011" lon="6.26816">
        <ele>902</ele>
        <time>2022-06-05T02:18:56Z</time>
      </trkpt>
      <trkpt lat="46.76041" lon="6.26879">
        <ele>904</ele>
        <time>2022-06-05T02:19:38Z</time>
      </trkpt>
      <trkpt lat="46.76061" lon="6.26899">
        <ele>905</ele>
        <time>2022-06-05T02:19:58Z</time>
      </trkpt>
      <trkpt lat="46.76073" lon="6.26906">
        <ele>906</ele>
        <time>2022-06-05T02:20:08Z</time>
      </trkpt>
      <trkpt lat="46.76077" lon="6.26909">
        <ele>906</ele>
        <time>2022-06-05T02:20:11Z</time>
      </trkpt>
      <trkpt lat="46.76111" lon="6.2696">
        <ele>901</ele>
        <time>2022-06-05T02:20:51Z</time>
      </trkpt>
      <trkpt lat="46.7614" lon="6.26999">
        <ele>897</ele>
        <time>2022-06-05T02:21:22Z</time>
      </trkpt>
      <trkpt lat="46.76203" lon="6.27086">
        <ele>892</ele>
        <time>2022-06-05T02:22:32Z</time>
      </trkpt>
      <trkpt lat="46.76228" lon="6.27123">
        <ele>891</ele>
        <time>2022-06-05T02:23:00Z</time>
      </trkpt>
      <trkpt lat="46.76256" lon="6.27169">
        <ele>891</ele>
        <time>2022-06-05T02:23:34Z</time>
      </trkpt>
      <trkpt lat="46.76288" lon="6.27217">
        <ele>890</ele>
        <time>2022-06-05T02:24:11Z</time>
      </trkpt>
      <trkpt lat="46.763" lon="6.27241">
        <ele>889</ele>
        <time>2022-06-05T02:24:27Z</time>
      </trkpt>
      <trkpt lat="46.76306" lon="6.27269">
        <ele>889</ele>
        <time>2022-06-05T02:24:43Z</time>
      </trkpt>
      <trkpt lat="46.76315" lon="6.27308">
        <ele>888</ele>
        <time>2022-06-05T02:25:06Z</time>
      </trkpt>
      <trkpt lat="46.76323" lon="6.27349">
        <ele>887</ele>
        <time>2022-06-05T02:25:29Z</time>
      </trkpt>
      <trkpt lat="46.76336" lon="6.27405">
        <ele>885</ele>
        <time>2022-06-05T02:26:02Z</time>
      </trkpt>
      <trkpt lat="46.76342" lon="6.27433">
        <ele>884</ele>
        <time>2022-06-05T02:26:18Z</time>
      </trkpt>
      <trkpt lat="46.76346" lon="6.27444">
        <ele>883</ele>
        <time>2022-06-05T02:26:25Z</time>
      </trkpt>
      <trkpt lat="46.76351" lon="6.27454">
        <ele>883</ele>
        <time>2022-06-05T02:26:31Z</time>
      </trkpt>
      <trkpt lat="46.7636" lon="6.27457">
        <ele>882</ele>
        <time>2022-06-05T02:26:39Z</time>
      </trkpt>
      <trkpt lat="46.76368" lon="6.27461">
        <ele>881</ele>
        <time>2022-06-05T02:26:46Z</time>
      </trkpt>
      <trkpt lat="46.76374" lon="6.27468">
        <ele>880</ele>
        <time>2022-06-05T02:26:52Z</time>
      </trkpt>
      <trkpt lat="46.76385" lon="6.27486">
        <ele>879</ele>
        <time>2022-06-05T02:27:05Z</time>
      </trkpt>
      <trkpt lat="46.76394" lon="6.27502">
        <ele>878</ele>
        <time>2022-06-05T02:27:16Z</time>
      </trkpt>
      <trkpt lat="46.76402" lon="6.27511">
        <ele>878</ele>
        <time>2022-06-05T02:27:24Z</time>
      </trkpt>
      <trkpt lat="46.76408" lon="6.27516">
        <ele>878</ele>
        <time>2022-06-05T02:27:30Z</time>
      </trkpt>
      <trkpt lat="46.76422" lon="6.27518">
        <ele>876</ele>
        <time>2022-06-05T02:27:41Z</time>
      </trkpt>
      <trkpt lat="46.76434" lon="6.27517">
        <ele>875</ele>
        <time>2022-06-05T02:27:51Z</time>
      </trkpt>
      <trkpt lat="46.76448" lon="6.27517">
        <ele>874</ele>
        <time>2022-06-05T02:28:02Z</time>
      </trkpt>
      <trkpt lat="46.76457" lon="6.27521">
        <ele>873</ele>
        <time>2022-06-05T02:28:10Z</time>
      </trkpt>
      <trkpt lat="46.76466" lon="6.27521">
        <ele>873</ele>
        <time>2022-06-05T02:28:17Z</time>
      </trkpt>
      <trkpt lat="46.76476" lon="6.27518">
        <ele>872</ele>
        <time>2022-06-05T02:28:25Z</time>
      </trkpt>
      <trkpt lat="46.76489" lon="6.27517">
        <ele>871</ele>
        <time>2022-06-05T02:28:35Z</time>
      </trkpt>
      <trkpt lat="46.76504" lon="6.27522">
        <ele>870</ele>
        <time>2022-06-05T02:28:48Z</time>
      </trkpt>
      <trkpt lat="46.76518" lon="6.27526">
        <ele>869</ele>
        <time>2022-06-05T02:28:59Z</time>
      </trkpt>
      <trkpt lat="46.76519" lon="6.27526">
        <ele>869</ele>
        <time>2022-06-05T02:29:00Z</time>
      </trkpt>
      <trkpt lat="46.76528" lon="6.2753">
        <ele>869</ele>
        <time>2022-06-05T02:29:08Z</time>
      </trkpt>
      <trkpt lat="46.76537" lon="6.27539">
        <ele>868</ele>
        <time>2022-06-05T02:29:16Z</time>
      </trkpt>
      <trkpt lat="46.76563" lon="6.27571">
        <ele>867</ele>
        <time>2022-06-05T02:29:44Z</time>
      </trkpt>
      <trkpt lat="46.7658" lon="6.27589">
        <ele>867</ele>
        <time>2022-06-05T02:30:00Z</time>
      </trkpt>
      <trkpt lat="46.76595" lon="6.27603">
        <ele>866</ele>
        <time>2022-06-05T02:30:15Z</time>
      </trkpt>
      <trkpt lat="46.76617" lon="6.27621">
        <ele>866</ele>
        <time>2022-06-05T02:30:35Z</time>
      </trkpt>
      <trkpt lat="46.76639" lon="6.27638">
        <ele>865</ele>
        <time>2022-06-05T02:30:55Z</time>
      </trkpt>
      <trkpt lat="46.76657" lon="6.27649">
        <ele>865</ele>
        <time>2022-06-05T02:31:10Z</time>
      </trkpt>
      <trkpt lat="46.7668" lon="6.27665">
        <ele>865</ele>
        <time>2022-06-05T02:31:31Z</time>
      </trkpt>
      <trkpt lat="46.76698" lon="6.27676">
        <ele>864</ele>
        <time>2022-06-05T02:31:47Z</time>
      </trkpt>
      <trkpt lat="46.76712" lon="6.27685">
        <ele>864</ele>
        <time>2022-06-05T02:31:59Z</time>
      </trkpt>
      <trkpt lat="46.7672" lon="6.27687">
        <ele>864</ele>
        <time>2022-06-05T02:32:05Z</time>
      </trkpt>
      <trkpt lat="46.76726" lon="6.27686">
        <ele>864</ele>
        <time>2022-06-05T02:32:10Z</time>
      </trkpt>
      <trkpt lat="46.76733" lon="6.27682">
        <ele>864</ele>
        <time>2022-06-05T02:32:16Z</time>
      </trkpt>
      <trkpt lat="46.76741" lon="6.27674">
        <ele>864</ele>
        <time>2022-06-05T02:32:24Z</time>
      </trkpt>
      <trkpt lat="46.76749" lon="6.27664">
        <ele>864</ele>
        <time>2022-06-05T02:32:32Z</time>
      </trkpt>
      <trkpt lat="46.76755" lon="6.27661">
        <ele>864</ele>
        <time>2022-06-05T02:32:37Z</time>
      </trkpt>
      <trkpt lat="46.76764" lon="6.27665">
        <ele>864</ele>
        <time>2022-06-05T02:32:45Z</time>
      </trkpt>
      <trkpt lat="46.76772" lon="6.27676">
        <ele>864</ele>
        <time>2022-06-05T02:32:54Z</time>
      </trkpt>
      <trkpt lat="46.76778" lon="6.27676">
        <ele>864</ele>
        <time>2022-06-05T02:32:59Z</time>
      </trkpt>
      <trkpt lat="46.76783" lon="6.27671">
        <ele>864</ele>
        <time>2022-06-05T02:33:03Z</time>
      </trkpt>
      <trkpt lat="46.76784" lon="6.27668">
        <ele>864</ele>
        <time>2022-06-05T02:33:05Z</time>
      </trkpt>
      <trkpt lat="46.76786" lon="6.27664">
        <ele>864</ele>
        <time>2022-06-05T02:33:08Z</time>
      </trkpt>
      <trkpt lat="46.7679" lon="6.27654">
        <ele>864</ele>
        <time>2022-06-05T02:33:14Z</time>
      </trkpt>
      <trkpt lat="46.76744" lon="6.27621">
        <ele>864</ele>
        <time>2022-06-05T02:33:55Z</time>
      </trkpt>
    </trkseg>
  </trk>
</gpx>